createdAt,value
2022-10-04T00:01:50.663Z,102339.25
2022-10-04T00:04:25.373Z,102344.50
2022-10-04T00:07:00.895Z,102348.91
2022-10-04T00:09:37.609Z,102336.59
2022-10-04T00:12:06.928Z,102339.22
2022-10-04T00:14:38.982Z,102340.97
2022-10-04T00:17:13.670Z,102337.41
2022-10-04T00:19:47.122Z,102328.63
2022-10-04T00:22:21.521Z,102331.25
2022-10-04T00:25:20.429Z,102322.41
2022-10-04T00:28:32.618Z,102323.25
2022-10-04T00:31:20.420Z,102322.34
2022-10-04T00:33:52.239Z,102316.16
2022-10-04T00:36:45.803Z,102314.44
2022-10-04T00:39:28.637Z,102314.44
2022-10-04T00:42:20.461Z,102305.63
2022-10-04T00:44:56.006Z,102300.34
2022-10-04T00:47:32.234Z,102296.84
2022-10-04T00:50:14.209Z,102299.47
2022-10-04T00:52:49.254Z,102290.69
2022-10-04T00:55:26.883Z,102286.31
2022-10-04T00:58:00.920Z,102282.81
2022-10-04T01:00:33.366Z,102279.31
2022-10-04T01:03:06.835Z,102284.59
2022-10-04T01:05:37.646Z,102280.25
2022-10-04T01:08:10.157Z,102273.19
2022-10-04T01:10:46.347Z,102274.97
2022-10-04T01:13:21.395Z,102266.22
2022-10-04T01:15:55.402Z,102268.00
2022-10-04T01:18:33.285Z,102256.53
2022-10-04T01:21:06.422Z,102252.16
2022-10-04T01:23:47.506Z,102254.78
2022-10-04T01:26:42.170Z,102248.66
2022-10-04T01:29:15.594Z,102253.91
2022-10-04T01:31:46.274Z,102251.28
2022-10-04T01:34:17.225Z,102255.69
2022-10-04T01:36:47.286Z,102239.03
2022-10-04T01:39:19.452Z,102246.94
2022-10-04T01:41:55.528Z,102247.81
2022-10-04T01:44:31.553Z,102249.59
2022-10-04T01:47:09.760Z,102245.19
2022-10-04T01:49:40.467Z,102236.41
2022-10-04T01:52:17.180Z,102233.75
2022-10-04T01:54:51.168Z,102228.47
2022-10-04T01:57:24.104Z,102234.63
2022-10-04T01:59:58.692Z,102231.97
2022-10-04T02:02:32.743Z,102217.91
2022-10-04T02:05:03.269Z,102215.28
2022-10-04T02:07:34.357Z,102212.63
2022-10-04T02:10:08.805Z,102209.13
2022-10-04T02:12:38.645Z,102200.38
2022-10-04T02:15:11.481Z,102201.28
2022-10-04T02:17:44.217Z,102197.75
2022-10-04T02:20:17.823Z,102196.84
2022-10-04T02:22:48.272Z,102189.84
2022-10-04T02:25:20.855Z,102190.69
2022-10-04T02:27:49.175Z,102188.91
2022-10-04T02:30:17.327Z,102185.41
2022-10-04T02:32:57.815Z,102175.75
2022-10-04T02:35:28.786Z,102179.25
2022-10-04T02:38:08.872Z,102176.59
2022-10-04T02:40:45.986Z,102173.97
2022-10-04T02:43:18.794Z,102179.19
2022-10-04T02:45:52.462Z,102181.81
2022-10-04T02:48:35.903Z,102174.75
2022-10-04T02:51:18.729Z,102168.59
2022-10-04T02:53:54.694Z,102165.06
2022-10-04T02:56:25.960Z,102169.44
2022-10-04T02:58:55.431Z,102163.28
2022-10-04T03:01:30.030Z,102162.38
2022-10-04T03:03:59.869Z,102154.44
2022-10-04T03:06:33.326Z,102150.91
2022-10-04T03:09:04.907Z,102141.22
2022-10-04T03:11:37.342Z,102133.25
2022-10-04T03:14:10.627Z,102138.50
2022-10-04T03:16:42.086Z,102139.31
2022-10-04T03:19:11.655Z,102134.91
2022-10-04T03:21:41.917Z,102140.16
2022-10-04T03:24:17.241Z,102131.34
2022-10-04T03:26:50.142Z,102133.09
2022-10-04T03:29:20.715Z,102139.25
2022-10-04T03:31:52.061Z,102133.06
2022-10-04T03:34:24.341Z,102123.47
2022-10-04T03:36:56.253Z,102124.31
2022-10-04T03:39:30.065Z,102126.91
2022-10-04T03:41:59.965Z,102120.75
2022-10-04T03:44:28.576Z,102121.53
2022-10-04T03:46:57.081Z,102123.22
2022-10-04T03:49:34.451Z,102118.78
2022-10-04T03:52:04.462Z,102118.75
2022-10-04T03:54:34.552Z,102128.38
2022-10-04T03:57:04.854Z,102122.19
2022-10-04T03:59:34.493Z,102124.81
2022-10-04T04:02:11.345Z,102120.41
2022-10-04T04:04:50.769Z,102129.16
2022-10-04T04:07:26.112Z,102121.28
2022-10-04T04:10:02.904Z,102120.38
2022-10-04T04:12:39.955Z,102121.28
2022-10-04T04:15:12.714Z,102114.25
2022-10-04T04:17:42.530Z,102118.63
2022-10-04T04:20:26.293Z,102113.38
2022-10-04T04:23:02.322Z,102113.38
2022-10-04T04:25:35.946Z,102116.88
2022-10-04T04:28:17.682Z,102110.72
2022-10-04T04:30:48.269Z,102102.81
2022-10-04T04:33:26.917Z,102104.53
2022-10-04T04:35:57.430Z,102106.28
2022-10-04T04:38:27.129Z,102107.16
2022-10-04T04:40:56.121Z,102094.88
2022-10-04T04:43:29.026Z,102092.22
2022-10-04T04:46:22.403Z,102093.94
2022-10-04T04:48:48.635Z,102086.88
2022-10-04T04:51:23.556Z,102084.25
2022-10-04T04:53:53.416Z,102079.81
2022-10-04T04:56:26.469Z,102089.44
2022-10-04T04:58:59.997Z,102080.59
2022-10-04T05:01:33.730Z,102083.19
2022-10-04T05:04:04.344Z,102081.34
2022-10-04T05:06:36.345Z,102081.28
2022-10-04T05:09:05.656Z,102076.88
2022-10-04T05:11:37.224Z,102072.44
2022-10-04T05:14:10.187Z,102066.25
2022-10-04T05:16:43.933Z,102068.81
2022-10-04T05:19:17.093Z,102073.13
2022-10-04T05:21:48.005Z,102075.66
2022-10-04T05:24:23.539Z,102072.94
2022-10-04T05:26:53.197Z,102074.63
2022-10-04T05:29:26.899Z,102090.38
2022-10-04T05:32:05.654Z,102081.53
2022-10-04T05:34:40.669Z,102078.97
2022-10-04T05:37:27.335Z,102082.38
2022-10-04T05:40:07.637Z,102077.94
2022-10-04T05:42:41.477Z,102082.19
2022-10-04T05:45:22.802Z,102080.31
2022-10-04T05:47:53.651Z,102075.84
2022-10-04T05:50:30.765Z,102075.78
2022-10-04T05:53:22.711Z,102085.31
2022-10-04T05:55:59.174Z,102086.09
2022-10-04T05:58:55.720Z,102078.09
2022-10-04T06:01:45.812Z,102081.59
2022-10-04T06:04:45.080Z,102084.22
2022-10-04T06:07:24.490Z,102089.50
2022-10-04T06:10:27.576Z,102090.41
2022-10-04T06:13:04.448Z,102088.72
2022-10-04T06:15:58.743Z,102090.47
2022-10-04T06:19:02.505Z,102088.72
2022-10-04T06:21:32.926Z,102085.22
2022-10-04T06:24:05.989Z,102076.50
2022-10-04T06:26:40.488Z,102077.53
2022-10-04T06:29:14.854Z,102080.16
2022-10-04T06:32:12.274Z,102067.09
2022-10-04T06:35:30.609Z,102072.38
2022-10-04T06:38:23.490Z,102070.72
2022-10-04T06:41:08.254Z,102075.16
2022-10-04T06:44:24.326Z,102063.81
2022-10-04T06:47:01.829Z,102055.09
2022-10-04T06:49:40.972Z,102049.88
2022-10-04T06:52:32.368Z,102056.13
2022-10-04T06:55:48.556Z,102056.19
2022-10-04T06:59:00.177Z,102056.34
2022-10-04T07:01:31.783Z,102063.50
2022-10-04T07:04:14.170Z,102068.09
2022-10-04T07:06:50.623Z,102078.78
2022-10-04T07:09:25.375Z,102065.78
2022-10-04T07:11:59.881Z,102072.97
2022-10-04T07:14:35.437Z,102072.25
2022-10-04T07:17:12.361Z,102076.81
2022-10-04T07:19:46.270Z,102071.72
2022-10-04T07:22:19.156Z,102069.28
2022-10-04T07:25:02.192Z,102065.06
2022-10-04T07:27:35.881Z,102057.31
2022-10-04T07:30:08.087Z,102054.81
2022-10-04T07:32:39.676Z,102049.63
2022-10-04T07:35:21.322Z,102053.25
2022-10-04T07:37:57.755Z,102045.41
2022-10-04T07:40:32.847Z,102047.22
2022-10-04T07:43:06.802Z,102046.41
2022-10-04T07:45:37.224Z,102031.41
2022-10-04T07:48:16.263Z,102027.88
2022-10-04T07:50:53.617Z,102037.59
2022-10-04T07:53:27.647Z,102050.84
2022-10-04T07:56:03.676Z,102062.34
2022-10-04T07:58:50.244Z,102068.59
2022-10-04T08:01:29.888Z,102064.31
2022-10-04T08:04:18.444Z,102063.47
2022-10-04T08:06:59.335Z,102057.41
2022-10-04T08:09:45.511Z,102052.16
2022-10-04T08:12:22.985Z,102055.66
2022-10-04T08:14:58.343Z,102045.09
2022-10-04T08:17:39.590Z,102057.41
2022-10-04T08:20:26.570Z,102048.63
2022-10-04T08:23:24.293Z,102044.19
2022-10-04T08:26:08.786Z,102043.31
2022-10-04T08:29:05.540Z,102042.44
2022-10-04T08:31:54.080Z,102029.19
2022-10-04T08:34:43.365Z,102035.31
2022-10-04T08:37:29.623Z,102037.97
2022-10-04T08:40:24.057Z,102049.38
2022-10-04T08:43:34.358Z,102047.63
2022-10-04T08:46:44.114Z,102054.69
2022-10-04T08:49:59.427Z,102052.06
2022-10-04T08:53:16.397Z,102040.66
2022-10-04T08:56:18.360Z,102050.38
2022-10-04T08:59:18.662Z,102047.75
2022-10-04T09:02:00.303Z,102051.25
2022-10-04T09:05:02.873Z,102046.84
2022-10-04T09:08:43.378Z,102035.38
2022-10-04T09:11:34.075Z,102042.44
2022-10-04T09:14:23.514Z,102027.44
2022-10-04T09:17:07.818Z,102036.22
2022-10-04T09:19:54.977Z,102029.16
2022-10-04T09:22:44.174Z,102044.09
2022-10-04T09:25:49.403Z,102029.13
2022-10-04T09:29:13.466Z,102032.63
2022-10-04T09:32:33.802Z,102049.38
2022-10-04T09:35:24.180Z,102038.78
2022-10-04T09:38:20.721Z,102029.94
2022-10-04T09:41:15.507Z,102029.06
2022-10-04T09:44:20.268Z,102020.28
2022-10-04T09:47:31.180Z,102029.94
2022-10-04T09:50:26.438Z,102029.03
2022-10-04T09:53:12.682Z,102029.84
2022-10-04T09:56:14.286Z,102032.44
2022-10-04T09:59:18.593Z,102034.16
2022-10-04T10:02:12.899Z,102025.28
2022-10-04T10:04:54.607Z,102030.53
2022-10-04T10:07:38.003Z,102027.81
2022-10-04T10:10:38.361Z,102017.19
2022-10-04T10:13:43.901Z,102014.50
2022-10-04T10:16:30.733Z,102010.91
2022-10-04T10:19:28.510Z,102005.53
2022-10-04T10:22:31.156Z,102011.69
2022-10-04T10:25:31.459Z,102005.47
2022-10-04T10:28:26.453Z,101998.34
2022-10-04T10:31:27.499Z,101985.06
2022-10-04T10:34:37.723Z,101972.56
2022-10-04T10:37:15.937Z,101972.47
2022-10-04T10:40:21.031Z,101971.50
2022-10-04T10:43:21.597Z,101975.94
2022-10-04T10:46:15.591Z,101965.31
2022-10-04T10:49:09.743Z,101961.75
2022-10-04T10:52:20.215Z,101967.81
2022-10-04T10:55:30.601Z,101965.03
2022-10-04T10:58:44.217Z,101968.50
2022-10-04T11:02:04.936Z,101962.28
2022-10-04T11:04:54.827Z,101982.53
2022-10-04T11:07:51.611Z,101973.69
2022-10-04T11:11:03.332Z,101978.13
2022-10-04T11:14:13.616Z,101971.03
2022-10-04T11:17:21.129Z,101969.16
2022-10-04T11:20:35.322Z,101960.13
2022-10-04T11:23:40.171Z,101955.47
2022-10-04T11:26:55.871Z,101949.97
2022-10-04T11:30:05.910Z,101956.00
2022-10-04T11:33:39.178Z,101955.84
2022-10-04T11:36:25.941Z,101953.78
2022-10-04T11:39:22.035Z,101945.53
2022-10-04T11:41:56.783Z,101944.22
2022-10-04T11:45:11.106Z,101927.88
2022-10-04T11:48:01.907Z,101919.25
2022-10-04T11:50:42.005Z,101914.13
2022-10-04T11:54:04.591Z,101915.22
2022-10-04T11:57:00.020Z,101914.47
2022-10-04T11:59:45.518Z,101908.56
2022-10-04T12:03:16.632Z,101910.72
2022-10-04T12:06:09.338Z,101906.53
2022-10-04T12:09:05.594Z,101898.19
2022-10-04T12:12:36.287Z,101898.00
2022-10-04T12:15:40.462Z,101899.53
2022-10-04T12:19:21.399Z,101892.69
2022-10-04T12:22:21.016Z,101891.13
2022-10-04T12:25:54.124Z,101876.44
2022-10-04T12:29:04.491Z,101873.69
2022-10-04T12:31:36.254Z,101882.53
2022-10-04T12:34:17.390Z,101882.59
2022-10-04T12:37:15.207Z,101882.34
2022-10-04T12:40:16.090Z,101867.19
2022-10-04T12:42:55.762Z,101868.25
2022-10-04T12:45:39.549Z,101842.53
2022-10-04T12:48:27.816Z,101858.13
2022-10-04T12:51:11.018Z,101849.47
2022-10-04T12:53:49.337Z,101843.66
2022-10-04T12:56:37.273Z,101840.84
2022-10-04T12:59:31.520Z,101837.00
2022-10-04T13:02:21.216Z,101840.16
2022-10-04T13:04:54.574Z,101840.28
2022-10-04T13:07:59.665Z,101825.31
2022-10-04T13:10:58.847Z,101822.44
2022-10-04T13:13:52.511Z,101830.25
2022-10-04T13:19:35.994Z,101842.25
2022-10-04T13:22:51.410Z,101836.00
2022-10-04T13:25:28.498Z,101835.81
2022-10-04T13:28:05.372Z,101832.59
2022-10-04T13:30:44.407Z,101834.63
2022-10-04T13:33:23.827Z,101830.69
2022-10-04T13:36:00.930Z,101828.69
2022-10-04T13:39:10.303Z,101819.00
2022-10-04T13:42:01.295Z,101816.81
2022-10-04T13:45:03.276Z,101816.75
2022-10-04T13:47:57.996Z,101814.63
2022-10-04T13:50:49.831Z,101818.50
2022-10-04T13:53:54.097Z,101794.97
2022-10-04T13:56:59.259Z,101800.25
2022-10-04T13:59:43.966Z,101799.78
2022-10-04T14:03:09.022Z,101795.56
2022-10-04T14:06:47.172Z,101788.47
2022-10-04T14:09:52.309Z,101796.91
2022-10-04T14:13:06.268Z,101783.50
2022-10-04T14:16:27.886Z,101779.78
2022-10-04T14:20:07.056Z,101779.66
2022-10-04T14:23:02.937Z,101790.75
2022-10-04T14:26:16.891Z,101801.16
2022-10-04T14:29:21.569Z,101803.19
2022-10-04T14:32:21.164Z,101800.19
2022-10-04T14:35:01.411Z,101808.56
2022-10-04T14:38:14.184Z,101800.84
2022-10-04T14:41:10.641Z,101798.28
2022-10-04T14:44:25.803Z,101794.31
2022-10-04T14:47:11.666Z,101791.03
2022-10-04T14:50:05.119Z,101795.59
2022-10-04T14:52:45.818Z,101790.28
2022-10-04T14:55:34.550Z,101789.53
2022-10-04T14:58:18.240Z,101791.50
2022-10-04T15:01:09.373Z,101782.81
2022-10-04T15:03:51.641Z,101783.78
2022-10-04T15:06:37.007Z,101771.22
2022-10-04T15:09:28.119Z,101793.25
2022-10-04T15:12:32.689Z,101799.53
2022-10-04T15:15:30.743Z,101796.22
2022-10-04T15:18:05.549Z,101795.38
2022-10-04T15:20:49.479Z,101803.59
2022-10-04T15:23:31.090Z,101798.47
2022-10-04T15:26:08.215Z,101792.50
2022-10-04T15:29:00.039Z,101808.75
2022-10-04T15:31:35.932Z,101797.44
2022-10-04T15:34:26.025Z,101786.00
2022-10-04T15:37:12.799Z,101790.50
2022-10-04T15:40:25.250Z,101787.94
2022-10-04T15:43:17.083Z,101789.28
2022-10-04T15:46:31.651Z,101781.59
2022-10-04T15:49:37.801Z,101779.63
2022-10-04T15:52:16.122Z,101775.13
2022-10-04T15:55:09.790Z,101771.94
2022-10-04T15:58:22.336Z,101768.59
2022-10-04T16:01:18.708Z,101754.91
2022-10-04T16:04:11.404Z,101760.47
2022-10-04T16:06:51.668Z,101752.03
2022-10-04T16:09:32.045Z,101760.34
2022-10-04T16:12:20.429Z,101751.78
2022-10-04T16:14:59.513Z,101758.31
2022-10-04T16:17:46.485Z,101755.09
2022-10-04T16:20:52.339Z,101753.78
2022-10-04T16:23:32.517Z,101756.78
2022-10-04T16:26:04.958Z,101757.91
2022-10-04T16:29:06.720Z,101757.31
2022-10-04T16:31:56.053Z,101754.03
2022-10-04T16:34:48.071Z,101756.94
2022-10-04T16:37:27.535Z,101752.72
2022-10-04T16:40:03.306Z,101752.94
2022-10-04T16:42:46.898Z,101755.81
2022-10-04T16:45:50.584Z,101745.47
2022-10-04T16:48:33.719Z,101758.00
2022-10-04T16:51:35.635Z,101755.53
2022-10-04T16:54:27.713Z,101758.31
2022-10-04T16:57:19.621Z,101759.34
2022-10-04T16:59:56.861Z,101762.09
2022-10-04T17:02:53.756Z,101775.44
2022-10-04T17:05:37.092Z,101769.28
2022-10-04T17:08:33.095Z,101765.75
2022-10-04T17:11:29.090Z,101763.16
2022-10-04T17:14:03.848Z,101757.03
2022-10-04T17:16:39.958Z,101768.59
2022-10-04T17:19:32.158Z,101751.88
2022-10-04T17:22:17.251Z,101745.72
2022-10-04T17:25:02.421Z,101752.75
2022-10-04T17:27:48.407Z,101746.53
2022-10-04T17:30:23.225Z,101752.66
2022-10-04T17:33:12.496Z,101750.00
2022-10-04T17:36:10.286Z,101747.38
2022-10-04T17:38:49.824Z,101749.19
2022-10-04T17:41:25.730Z,101746.59
2022-10-04T17:44:36.946Z,101738.69
2022-10-04T17:47:14.740Z,101748.41
2022-10-04T17:50:13.663Z,101751.94
2022-10-04T17:53:19.467Z,101739.66
2022-10-04T17:55:52.963Z,101737.00
2022-10-04T17:58:25.985Z,101730.84
2022-10-04T18:01:01.771Z,101744.94
2022-10-04T18:03:40.817Z,101748.47
2022-10-04T18:06:27.402Z,101754.63
2022-10-04T18:08:59.402Z,101762.50
2022-10-04T18:11:35.718Z,101758.06
2022-10-04T18:14:10.045Z,101755.41
2022-10-04T18:16:51.168Z,101758.03
2022-10-04T18:19:39.956Z,101755.34
2022-10-04T18:22:15.569Z,101755.34
2022-10-04T18:24:45.412Z,101768.56
2022-10-04T18:27:21.102Z,101757.09
2022-10-04T18:30:09.054Z,101750.88
2022-10-04T18:32:38.103Z,101743.81
2022-10-04T18:35:26.569Z,101732.34
2022-10-04T18:37:57.055Z,101727.91
2022-10-04T18:40:28.894Z,101726.13
2022-10-04T18:43:01.689Z,101727.03
2022-10-04T18:45:32.244Z,101719.09
2022-10-04T18:48:03.597Z,101720.03
2022-10-04T18:50:43.461Z,101718.25
2022-10-04T18:53:41.222Z,101736.78
2022-10-04T18:56:11.667Z,101746.50
2022-10-04T18:59:20.481Z,101745.59
2022-10-04T19:02:07.898Z,101745.59
2022-10-04T19:04:49.764Z,101743.81
2022-10-04T19:07:25.043Z,101733.22
2022-10-04T19:10:07.700Z,101727.03
2022-10-04T19:12:48.863Z,101729.69
2022-10-04T19:15:45.849Z,101720.88
2022-10-04T19:18:34.419Z,101726.19
2022-10-04T19:21:16.163Z,101703.22
2022-10-04T19:24:10.954Z,101698.81
2022-10-04T19:26:42.356Z,101700.56
2022-10-04T19:29:26.038Z,101698.78
2022-10-04T19:32:00.148Z,101694.34
2022-10-04T19:34:46.740Z,101692.56
2022-10-04T19:37:26.463Z,101685.50
2022-10-04T19:40:08.891Z,101684.63
2022-10-04T19:42:49.008Z,101678.41
2022-10-04T19:45:28.545Z,101681.06
2022-10-04T19:47:59.721Z,101676.63
2022-10-04T19:50:33.629Z,101678.41
2022-10-04T19:53:08.275Z,101688.09
2022-10-04T19:55:44.977Z,101681.88
2022-10-04T19:58:27.562Z,101694.25
2022-10-04T20:00:55.883Z,101691.59
2022-10-04T20:03:24.151Z,101698.63
2022-10-04T20:05:54.299Z,101690.69
2022-10-04T20:08:57.951Z,101696.84
2022-10-04T20:11:51.889Z,101699.53
2022-10-04T20:14:48.208Z,101704.84
2022-10-04T20:17:32.938Z,101696.00
2022-10-04T20:20:01.622Z,101680.09
2022-10-04T20:22:55.546Z,101681.94
2022-10-04T20:26:02.837Z,101677.50
2022-10-04T20:28:46.141Z,101672.19
2022-10-04T20:31:55.678Z,101663.38
2022-10-04T20:34:33.133Z,101668.69
2022-10-04T20:37:01.733Z,101668.63
2022-10-04T20:40:00.450Z,101660.69
2022-10-04T20:42:34.701Z,101665.13
2022-10-04T20:45:22.994Z,101666.84
2022-10-04T20:47:54.173Z,101665.97
2022-10-04T20:50:49.499Z,101665.97
2022-10-04T20:53:22.334Z,101673.06
2022-10-04T20:55:53.967Z,101672.13
2022-10-04T20:58:35.002Z,101674.78
2022-10-04T21:01:17.047Z,101682.72
2022-10-04T21:03:45.306Z,101683.59
2022-10-04T21:06:14.409Z,101686.25
2022-10-04T21:08:42.698Z,101682.72
2022-10-04T21:11:19.706Z,101688.03
2022-10-04T21:13:57.979Z,101688.03
2022-10-04T21:16:47.930Z,101700.41
2022-10-04T21:19:50.401Z,101686.31
2022-10-04T21:22:36.565Z,101686.31
2022-10-04T21:25:40.362Z,101682.78
2022-10-04T21:28:35.312Z,101677.50
2022-10-04T21:31:04.715Z,101676.63
2022-10-04T21:33:36.208Z,101672.25
2022-10-04T21:36:05.986Z,101662.53
2022-10-04T21:38:34.517Z,101655.50
2022-10-04T21:41:02.960Z,101648.44
2022-10-04T21:43:31.418Z,101658.16
2022-10-04T21:45:59.771Z,101659.94
2022-10-04T21:48:28.385Z,101667.88
2022-10-04T21:50:57.929Z,101673.16
2022-10-04T21:53:26.187Z,101656.38
2022-10-04T21:55:54.387Z,101664.31
2022-10-04T21:58:22.720Z,101660.78
2022-10-04T22:00:50.976Z,101664.34
2022-10-04T22:03:19.197Z,101669.66
2022-10-04T22:05:47.371Z,101674.91
2022-10-04T22:08:16.908Z,101675.81
2022-10-04T22:10:45.665Z,101658.16
2022-10-04T22:13:14.000Z,101653.78
2022-10-04T22:15:42.323Z,101661.72
2022-10-04T22:18:10.441Z,101652.00
2022-10-04T22:20:39.013Z,101652.91
2022-10-04T22:23:19.447Z,101644.97
2022-10-04T22:25:48.134Z,101656.41
2022-10-04T22:28:22.888Z,101658.16
2022-10-04T22:30:53.374Z,101660.81
2022-10-04T22:33:35.016Z,101657.28
2022-10-04T22:36:15.438Z,101656.41
2022-10-04T22:38:50.121Z,101649.34
2022-10-04T22:41:20.334Z,101651.13
2022-10-04T22:43:50.469Z,101654.63
2022-10-04T22:46:20.908Z,101645.81
2022-10-04T22:48:50.848Z,101636.97
2022-10-04T22:51:18.994Z,101635.19
2022-10-04T22:53:49.524Z,101633.41
2022-10-04T22:56:17.781Z,101634.28
2022-10-04T22:58:46.111Z,101630.72
2022-10-04T23:01:16.860Z,101628.91
2022-10-04T23:03:48.403Z,101627.16
2022-10-04T23:06:17.078Z,101624.47
2022-10-04T23:08:46.080Z,101614.75
2022-10-04T23:11:15.662Z,101610.34
2022-10-04T23:13:43.775Z,101610.34
2022-10-04T23:16:17.343Z,101613.88
2022-10-04T23:18:45.577Z,101608.53
2022-10-04T23:21:22.707Z,101599.72
2022-10-04T23:23:52.874Z,101604.09
2022-10-04T23:26:25.568Z,101607.66
2022-10-04T23:28:53.979Z,101608.53
2022-10-04T23:31:25.423Z,101608.53
2022-10-04T23:33:55.903Z,101612.03
2022-10-04T23:36:24.871Z,101609.38
2022-10-04T23:38:58.023Z,101607.63
2022-10-04T23:41:28.104Z,101601.44
2022-10-04T23:43:56.320Z,101592.63
2022-10-04T23:46:25.305Z,101592.63
2022-10-04T23:48:53.638Z,101588.19
2022-10-04T23:51:22.247Z,101597.06
2022-10-04T23:53:51.593Z,101591.75
2022-10-04T23:56:23.568Z,101591.75
2022-10-04T23:58:56.672Z,101584.69
